Time,TemperatureF,DewpointF,PressureIn,WindDirection,WindDirectionDegrees,WindSpeedMPH,WindSpeedGustMPH,Humidity,HourlyPrecipIn,Conditions,Clouds,dailyrainin,SoftwareType,DateUTC
2013-06-15 03:56:00,45.9,44.0,29.79,SE,138,0.0,0.0,94,0.00,,,0.00,weatherlink.com 1.10,2013-06-15 10:56:00,
2013-06-15 04:06:00,45.7,44.0,29.80,SE,138,0.0,0.0,94,0.00,,,0.00,weatherlink.com 1.10,2013-06-15 11:06:00,
2013-06-15 04:21:00,45.3,44.0,29.79,SE,138,0.0,0.0,94,0.00,,,0.00,weatherlink.com 1.10,2013-06-15 11:21:00,
2013-06-15 04:36:00,45.1,44.0,29.80,SE,138,0.0,0.0,94,0.00,,,0.00,weatherlink.com 1.10,2013-06-15 11:36:00,
2013-06-15 04:51:00,45.3,44.0,29.80,SE,138,0.0,0.0,94,0.00,,,0.00,weatherlink.com 1.10,2013-06-15 11:51:00,
2013-06-15 05:06:00,45.2,44.0,29.80,SE,138,0.0,0.0,94,0.00,,,0.00,weatherlink.com 1.10,2013-06-15 12:06:00,
2013-06-15 05:21:00,44.9,43.0,29.80,SE,138,0.0,0.0,94,0.00,,,0.00,weatherlink.com 1.10,2013-06-15 12:21:00,
2013-06-15 05:36:00,44.5,43.0,29.81,SE,138,0.0,0.0,94,0.00,,,0.00,weatherlink.com 1.10,2013-06-15 12:36:00,
2013-06-15 05:51:00,44.4,43.0,29.81,SE,138,0.0,0.0,94,0.00,,,0.00,weatherlink.com 1.10,2013-06-15 12:51:00,
2013-06-15 06:06:00,44.2,43.0,29.82,SE,138,0.0,0.0,94,0.00,,,0.00,weatherlink.com 1.10,2013-06-15 13:06:00,
2013-06-15 06:21:00,44.2,43.0,29.82,SE,138,0.0,0.0,94,0.00,,,0.00,weatherlink.com 1.10,2013-06-15 13:21:00,
2013-06-15 06:36:00,44.7,43.0,29.82,SE,138,0.0,0.0,95,0.00,,,0.00,weatherlink.com 1.10,2013-06-15 13:36:00,
2013-06-15 06:51:00,45.3,44.0,29.83,SE,138,0.0,0.0,95,0.00,,,0.00,weatherlink.com 1.10,2013-06-15 13:51:00,
2013-06-15 07:06:00,46.2,45.0,29.83,SE,138,0.0,0.0,95,0.00,,,0.00,weatherlink.com 1.10,2013-06-15 14:06:00,
2013-06-15 07:21:00,47.4,46.0,29.83,SE,138,0.0,0.0,95,0.00,,,0.00,weatherlink.com 1.10,2013-06-15 14:21:00,
2013-06-15 07:36:00,48.6,48.0,29.84,SE,138,0.0,0.0,96,0.00,,,0.00,weatherlink.com 1.10,2013-06-15 14:36:00,
2013-06-15 07:51:00,49.6,48.0,29.84,SE,138,0.0,1.0,95,0.00,,,0.00,weatherlink.com 1.10,2013-06-15 14:51:00,
2013-06-15 08:06:00,50.8,49.0,29.84,SE,138,0.0,1.0,93,0.00,,,0.00,weatherlink.com 1.10,2013-06-15 15:06:00,
2013-06-15 08:21:00,52.3,50.0,29.84,SE,138,0.0,1.0,91,0.00,,,0.00,weatherlink.com 1.10,2013-06-15 15:21:00,
2013-06-15 08:36:00,54.1,51.0,29.85,SW,223,0.0,2.0,88,0.00,,,0.00,weatherlink.com 1.10,2013-06-15 15:36:00,
2013-06-15 08:51:00,55.9,52.0,29.85,SW,223,0.0,2.0,85,0.00,,,0.00,weatherlink.com 1.10,2013-06-15 15:51:00,
2013-06-15 09:06:00,58.0,52.0,29.85,West,259,0.0,2.0,81,0.00,,,0.00,weatherlink.com 1.10,2013-06-15 16:06:00,
2013-06-15 09:21:00,60.0,52.0,29.86,SW,221,0.0,1.0,76,0.00,,,0.00,weatherlink.com 1.10,2013-06-15 16:21:00,
2013-06-15 09:36:00,62.5,53.0,29.86,SW,232,0.0,2.0,72,0.00,,,0.00,weatherlink.com 1.10,2013-06-15 16:36:00,
2013-06-15 09:52:00,64.6,54.0,29.86,South,178,0.0,2.0,68,0.00,,,0.00,weatherlink.com 1.10,2013-06-15 16:52:00,
2013-06-15 10:07:00,65.7,53.0,29.86,WSW,254,0.0,3.0,64,0.00,,,0.00,weatherlink.com 1.10,2013-06-15 17:07:00,
2013-06-15 10:22:00,67.5,54.0,29.85,South,175,1.0,2.0,62,0.00,,,0.00,weatherlink.com 1.10,2013-06-15 17:22:00,
2013-06-15 10:37:00,69.4,55.0,29.85,SW,226,0.0,2.0,60,0.00,,,0.00,weatherlink.com 1.10,2013-06-15 17:37:00,
2013-06-15 10:52:00,70.6,54.0,29.85,South,189,0.0,4.0,56,0.00,,,0.00,weatherlink.com 1.10,2013-06-15 17:52:00,
2013-06-15 11:07:00,71.5,54.0,29.85,SSW,208,1.0,4.0,54,0.00,,,0.00,weatherlink.com 1.10,2013-06-15 18:07:00,
2013-06-15 11:22:00,72.6,54.0,29.85,SSW,205,0.0,4.0,53,0.00,,,0.00,weatherlink.com 1.10,2013-06-15 18:22:00,
2013-06-15 11:37:00,74.4,56.0,29.85,SW,215,1.0,3.0,53,0.00,,,0.00,weatherlink.com 1.10,2013-06-15 18:37:00,
2013-06-15 11:52:00,75.9,56.0,29.85,SSE,155,0.0,4.0,50,0.00,,,0.00,weatherlink.com 1.10,2013-06-15 18:52:00,
2013-06-15 12:07:00,75.7,56.0,29.85,WSW,251,2.0,4.0,50,0.00,,,0.00,weatherlink.com 1.10,2013-06-15 19:07:00,
2013-06-15 12:22:00,77.5,57.0,29.85,SSW,202,1.0,6.0,50,0.00,,,0.00,weatherlink.com 1.10,2013-06-15 19:22:00,
2013-06-15 12:37:00,77.3,56.0,29.85,WSW,242,3.0,7.0,48,0.00,,,0.00,weatherlink.com 1.10,2013-06-15 19:37:00,
2013-06-15 12:52:00,76.7,56.0,29.85,West,274,0.0,8.0,49,0.00,,,0.00,weatherlink.com 1.10,2013-06-15 19:52:00,
2013-06-15 13:07:00,77.9,55.0,29.85,WSW,249,2.0,8.0,46,0.00,,,0.00,weatherlink.com 1.10,2013-06-15 20:07:00,
2013-06-15 13:22:00,77.0,55.0,29.85,WSW,252,4.0,7.0,46,0.00,,,0.00,weatherlink.com 1.10,2013-06-15 20:22:00,
2013-06-15 13:37:00,77.5,54.0,29.85,WSW,248,0.0,6.0,45,0.00,,,0.00,weatherlink.com 1.10,2013-06-15 20:37:00,
2013-06-15 13:52:00,78.4,55.0,29.85,SW,232,2.0,7.0,44,0.00,,,0.00,weatherlink.com 1.10,2013-06-15 20:52:00,
2013-06-15 14:07:00,78.9,55.0,29.84,SW,225,1.0,7.0,44,0.00,,,0.00,weatherlink.com 1.10,2013-06-15 21:07:00,
2013-06-15 14:22:00,79.6,55.0,29.84,SW,215,1.0,5.0,43,0.00,,,0.00,weatherlink.com 1.10,2013-06-15 21:22:00,
2013-06-15 14:37:00,79.9,55.0,29.84,SW,230,0.0,8.0,43,0.00,,,0.00,weatherlink.com 1.10,2013-06-15 21:37:00,
2013-06-15 14:52:00,80.6,57.0,29.84,SSW,209,7.0,7.0,44,0.00,,,0.00,weatherlink.com 1.10,2013-06-15 21:52:00,
2013-06-15 15:07:00,81.4,57.0,29.83,SE,138,0.0,7.0,43,0.00,,,0.00,weatherlink.com 1.10,2013-06-15 22:07:00,
2013-06-15 15:22:00,81.9,57.0,29.83,SE,132,1.0,4.0,42,0.00,,,0.00,weatherlink.com 1.10,2013-06-15 22:22:00,
2013-06-15 15:37:00,80.8,56.0,29.83,SW,215,0.0,3.0,43,0.00,,,0.00,weatherlink.com 1.10,2013-06-15 22:37:00,
2013-06-15 15:52:00,78.0,56.0,29.83,South,180,0.0,5.0,47,0.00,,,0.00,weatherlink.com 1.10,2013-06-15 22:52:00,
2013-06-15 16:07:00,77.5,56.0,29.83,ESE,109,2.0,5.0,48,0.00,,,0.00,weatherlink.com 1.10,2013-06-15 23:07:00,
2013-06-15 16:22:00,77.3,56.0,29.83,SE,146,0.0,6.0,48,0.00,,,0.00,weatherlink.com 1.10,2013-06-15 23:22:00,
2013-06-15 16:37:00,77.1,56.0,29.83,SE,134,2.0,4.0,48,0.00,,,0.00,weatherlink.com 1.10,2013-06-15 23:37:00,
2013-06-15 16:52:00,76.4,56.0,29.83,SE,144,4.0,4.0,49,0.00,,,0.00,weatherlink.com 1.10,2013-06-15 23:52:00,
2013-06-15 17:07:00,73.5,54.0,29.83,SSE,155,4.0,8.0,51,0.00,,,0.00,weatherlink.com 1.10,2013-06-16 00:07:00,
2013-06-15 17:22:00,73.6,55.0,29.83,SSE,168,0.0,5.0,52,0.00,,,0.00,weatherlink.com 1.10,2013-06-16 00:22:00,
2013-06-15 17:38:00,73.6,55.0,29.84,East,93,0.0,6.0,53,0.00,,,0.00,weatherlink.com 1.10,2013-06-16 00:38:00,
2013-06-15 17:53:00,71.4,54.0,29.84,SE,142,0.0,7.0,55,0.00,,,0.00,weatherlink.com 1.10,2013-06-16 00:53:00,
2013-06-15 18:08:00,70.9,54.0,29.84,SSW,194,0.0,6.0,56,0.00,,,0.00,weatherlink.com 1.10,2013-06-16 01:08:00,
2013-06-15 18:23:00,69.5,53.0,29.85,ESE,120,0.0,7.0,57,0.00,,,0.00,weatherlink.com 1.10,2013-06-16 01:23:00,
2013-06-15 18:38:00,69.7,54.0,29.85,SE,142,0.0,4.0,57,0.00,,,0.00,weatherlink.com 1.10,2013-06-16 01:38:00,
2013-06-15 18:53:00,69.0,53.0,29.86,SE,137,0.0,5.0,58,0.00,,,0.00,weatherlink.com 1.10,2013-06-16 01:53:00,
2013-06-15 19:08:00,67.6,53.0,29.86,SSE,148,0.0,2.0,60,0.00,,,0.00,weatherlink.com 1.10,2013-06-16 02:08:00,
2013-06-15 19:23:00,67.2,53.0,29.86,SE,144,0.0,7.0,61,0.00,,,0.00,weatherlink.com 1.10,2013-06-16 02:23:00,
2013-06-15 19:38:00,66.4,52.0,29.87,SSE,147,0.0,4.0,61,0.00,,,0.00,weatherlink.com 1.10,2013-06-16 02:38:00,
2013-06-15 19:53:00,65.0,52.0,29.87,SE,128,0.0,1.0,63,0.00,,,0.00,weatherlink.com 1.10,2013-06-16 02:53:00,
2013-06-15 20:08:00,63.8,52.0,29.88,SSE,158,0.0,1.0,65,0.00,,,0.00,weatherlink.com 1.10,2013-06-16 03:08:00,
2013-06-15 20:23:00,62.7,52.0,29.88,SSE,158,0.0,0.0,67,0.00,,,0.00,weatherlink.com 1.10,2013-06-16 03:23:00,
2013-06-15 20:38:00,61.3,51.0,29.88,SE,146,0.0,2.0,69,0.00,,,0.00,weatherlink.com 1.10,2013-06-16 03:38:00,
2013-06-15 20:53:00,59.8,50.0,29.89,SSE,148,0.0,1.0,71,0.00,,,0.00,weatherlink.com 1.10,2013-06-16 03:53:00,
2013-06-15 21:08:00,58.4,50.0,29.89,SE,144,0.0,1.0,73,0.00,,,0.00,weatherlink.com 1.10,2013-06-16 04:08:00,
2013-06-15 21:23:00,57.0,50.0,29.90,SE,142,0.0,2.0,76,0.00,,,0.00,weatherlink.com 1.10,2013-06-16 04:23:00,
2013-06-15 21:38:00,56.0,49.0,29.91,SE,142,0.0,1.0,77,0.00,,,0.00,weatherlink.com 1.10,2013-06-16 04:38:00,
2013-06-15 21:53:00,55.0,49.0,29.91,SSE,150,0.0,1.0,80,0.00,,,0.00,weatherlink.com 1.10,2013-06-16 04:53:00,
2013-06-15 22:08:00,54.0,48.0,29.92,SSE,150,0.0,1.0,81,0.00,,,0.00,weatherlink.com 1.10,2013-06-16 05:08:00,
2013-06-15 22:23:00,53.2,48.0,29.93,SSE,150,0.0,1.0,83,0.00,,,0.00,weatherlink.com 1.10,2013-06-16 05:23:00,
2013-06-15 22:38:00,52.5,48.0,29.93,SSE,150,0.0,0.0,84,0.00,,,0.00,weatherlink.com 1.10,2013-06-16 05:38:00,
2013-06-15 22:53:00,51.9,48.0,29.93,SSE,150,0.0,1.0,85,0.00,,,0.00,weatherlink.com 1.10,2013-06-16 05:53:00,
2013-06-15 23:08:00,51.3,47.0,29.93,SSE,148,1.0,1.0,86,0.00,,,0.00,weatherlink.com 1.10,2013-06-16 06:08:00,
2013-06-15 23:23:00,50.9,47.0,29.94,SSE,148,0.0,0.0,87,0.00,,,0.00,weatherlink.com 1.10,2013-06-16 06:23:00,
2013-06-15 23:38:00,50.5,47.0,29.94,SSE,148,0.0,1.0,88,0.00,,,0.00,weatherlink.com 1.10,2013-06-16 06:38:00,
2013-06-15 23:53:00,50.1,47.0,29.94,SE,146,0.0,1.0,88,0.00,,,0.00,weatherlink.com 1.10,2013-06-16 06:53:00,